Time;durP1;ratioP1;P1;durP2;ratioP2;P2;SDS_P1;SDS_P2;PMS_P1;PMS_P2;Temp;Humidity;BMP_temperature;BMP_pressure;BME280_temperature;BME280_humidity;BME280_pressure;Samples;Min_cycle;Max_cycle;Signal;HPM_P1;HPM_P2
2022/04/21 00:00:24;;;;;;;0.32;0.32;;;6.30;76.60;;;;;;5051894;28;20025;-73
2022/04/21 00:02:49;;;;;;;0.50;0.50;;;6.30;76.80;;;;;;5034390;28;20029;-73
2022/04/21 00:05:15;;;;;;;0.30;0.30;;;6.40;76.90;;;;;;5034065;28;20114;-72
2022/04/21 00:07:41;;;;;;;0.30;0.30;;;6.40;76.70;;;;;;5017581;28;20025;-72
2022/04/21 00:10:08;;;;;;;0.50;0.50;;;6.50;76.80;;;;;;5051908;28;20033;-73
2022/04/21 00:12:34;;;;;;;0.40;0.40;;;6.50;76.60;;;;;;5034168;28;20116;-72
2022/04/21 00:15:02;;;;;;;0.30;0.30;;;6.50;76.60;;;;;;5017413;28;20453;-73
2022/04/21 00:17:28;;;;;;;0.32;0.32;;;6.40;76.70;;;;;;5051802;28;20090;-73
2022/04/21 00:19:53;;;;;;;0.30;0.30;;;6.50;76.80;;;;;;5051832;28;20056;-73
2022/04/21 00:25:05;;;;;;;0.50;0.50;;;6.50;76.50;;;;;;5051756;28;20033;-73
2022/04/21 00:27:39;;;;;;;1.00;0.85;;;6.40;77.10;;;;;;5033901;28;20032;-73
2022/04/21 00:30:06;;;;;;;0.40;0.40;;;6.10;77.30;;;;;;5051489;28;20017;-73
2022/04/21 00:32:34;;;;;;;0.30;0.30;;;6.00;78.00;;;;;;5017485;28;20021;-73
2022/04/21 00:35:00;;;;;;;0.68;0.68;;;5.80;77.90;;;;;;5052021;28;20530;-73
2022/04/21 00:37:26;;;;;;;2.25;0.82;;;5.70;78.80;;;;;;5034470;28;20499;-75
2022/04/21 00:39:52;;;;;;;2.15;1.70;;;5.60;79.60;;;;;;5034217;28;20024;-75
2022/04/21 00:42:18;;;;;;;0.75;0.75;;;5.70;79.30;;;;;;5055367;28;20025;-75
2022/04/21 00:44:43;;;;;;;0.30;0.30;;;6.00;78.50;;;;;;5055181;28;20040;-75
2022/04/21 00:47:09;;;;;;;1.77;1.30;;;6.00;78.50;;;;;;5020740;28;20033;-75
2022/04/21 00:49:36;;;;;;;0.90;0.73;;;5.80;78.60;;;;;;5055334;28;20033;-75
2022/04/21 00:52:02;;;;;;;3.20;1.05;;;5.60;79.70;;;;;;5037072;28;20025;-75
2022/04/21 00:54:33;;;;;;;5.13;2.85;;;5.60;79.70;;;;;;5037085;28;20028;-75
2022/04/21 00:57:03;;;;;;;0.63;0.63;;;5.50;80.00;;;;;;5020611;28;20503;-75
2022/04/21 00:59:30;;;;;;;0.40;0.40;;;5.40;80.30;;;;;;5037108;28;20507;-75
2022/04/21 01:04:41;;;;;;;1.40;1.30;;;5.50;81.50;;;;;;5055009;28;20054;-75
2022/04/21 01:07:11;;;;;;;0.30;0.30;;;5.90;80.10;;;;;;5054214;28;20025;-75
2022/04/21 01:09:37;;;;;;;0.30;0.30;;;6.10;78.90;;;;;;5037098;28;20025;-75
2022/04/21 01:12:09;;;;;;;1.02;0.70;;;6.10;77.60;;;;;;5054724;28;20028;-75
2022/04/21 01:14:38;;;;;;;0.20;0.20;;;5.90;78.00;;;;;;5020310;28;20021;-75
2022/04/21 01:17:08;;;;;;;0.50;0.50;;;5.80;77.50;;;;;;5054207;28;20033;-75
2022/04/21 01:19:34;;;;;;;0.32;0.32;;;5.50;77.40;;;;;;5036693;28;20108;-75
2022/04/21 01:22:00;;;;;;;5.70;2.33;;;5.10;78.80;;;;;;5054594;28;20108;-75
2022/04/21 01:24:29;;;;;;;0.30;0.30;;;4.90;79.90;;;;;;5054534;28;20053;-75
2022/04/21 01:26:57;;;;;;;0.40;0.40;;;4.80;80.60;;;;;;5036403;28;20436;-75
2022/04/21 01:29:23;;;;;;;0.40;0.40;;;4.80;80.60;;;;;;5036509;28;20435;-75
2022/04/21 01:31:49;;;;;;;0.40;0.40;;;5.00;80.10;;;;;;5054446;28;20025;-75
2022/04/21 01:34:14;;;;;;;0.30;0.30;;;5.10;79.60;;;;;;5054360;28;20029;-75
2022/04/21 01:41:08;;;;;;;0.43;0.43;;;5.30;79.20;;;;;;5054024;28;20365;-75
2022/04/21 01:42:14;;;;;;;5.65;1.75;;;5.40;78.20;;;;;;5036006;28;20032;-75
2022/04/21 01:44:40;;;;;;;0.30;0.30;;;5.20;78.60;;;;;;5036211;28;20029;-75
2022/04/21 01:47:06;;;;;;;0.40;0.40;;;4.70;79.50;;;;;;5035997;28;20481;-75
2022/04/21 01:49:32;;;;;;;0.50;0.50;;;4.60;81.20;;;;;;5036289;28;20039;-74
2022/04/21 01:51:58;;;;;;;0.40;0.40;;;4.50;81.10;;;;;;5053905;28;20508;-74
2022/04/21 01:54:23;;;;;;;0.30;0.30;;;4.60;81.50;;;;;;5036255;28;20025;-74
2022/04/21 01:56:49;;;;;;;0.55;0.55;;;4.40;81.60;;;;;;5035738;28;20044;-75
2022/04/21 01:59:15;;;;;;;0.55;0.55;;;4.30;81.50;;;;;;5053925;28;20389;-75
2022/04/21 02:01:40;;;;;;;0.30;0.30;;;4.30;81.20;;;;;;5036097;28;20056;-74
2022/04/21 02:04:06;;;;;;;0.40;0.40;;;4.20;80.90;;;;;;5053901;28;20470;-75
2022/04/21 02:06:32;;;;;;;0.52;0.52;;;4.10;79.90;;;;;;5035936;28;20025;-75
2022/04/21 02:08:58;;;;;;;0.50;0.50;;;3.80;80.80;;;;;;5053776;28;20025;-74
2022/04/21 02:11:24;;;;;;;0.38;0.38;;;3.60;82.20;;;;;;5053366;28;20567;-75
2022/04/21 02:13:51;;;;;;;0.38;0.38;;;3.50;83.10;;;;;;5053915;28;20029;-75
2022/04/21 02:16:17;;;;;;;0.40;0.40;;;3.40;82.70;;;;;;5035466;28;20465;-71
2022/04/21 02:18:42;;;;;;;0.40;0.40;;;3.40;82.90;;;;;;5053535;28;20025;-71
2022/04/21 02:21:08;;;;;;;0.30;0.30;;;3.40;82.20;;;;;;5053511;28;20469;-71
2022/04/21 02:23:34;;;;;;;0.80;0.75;;;3.50;84.10;;;;;;5035866;28;20201;-71
2022/04/21 02:25:59;;;;;;;3.10;1.05;;;3.60;84.00;;;;;;5035371;28;20458;-71
2022/04/21 02:28:25;;;;;;;0.40;0.40;;;3.80;83.80;;;;;;5035646;28;20040;-71
2022/04/21 02:30:51;;;;;;;0.30;0.30;;;3.90;83.10;;;;;;5053241;28;20480;-71
2022/04/21 02:33:17;;;;;;;0.75;0.75;;;4.10;83.30;;;;;;5035402;28;20052;-71
2022/04/21 02:35:43;;;;;;;0.40;0.40;;;4.20;83.40;;;;;;5035429;28;20031;-71
2022/04/21 02:38:09;;;;;;;0.50;0.50;;;4.30;83.10;;;;;;5053298;28;20473;-71
2022/04/21 02:40:34;;;;;;;0.40;0.40;;;4.20;80.90;;;;;;5035276;28;20029;-71
2022/04/21 02:43:00;;;;;;;0.40;0.40;;;4.20;81.70;;;;;;5053120;28;20384;-71
2022/04/21 02:45:26;;;;;;;0.30;0.30;;;4.10;82.10;;;;;;5035075;28;20068;-71
2022/04/21 02:47:52;;;;;;;0.40;0.40;;;4.10;82.80;;;;;;5053124;28;20037;-71
2022/04/21 02:50:19;;;;;;;0.30;0.30;;;4.40;82.90;;;;;;5053268;28;20496;-71
2022/04/21 02:52:44;;;;;;;0.40;0.40;;;4.50;82.10;;;;;;5052991;28;20064;-71
2022/04/21 02:57:58;;;;;;;0.30;0.30;;;4.60;81.20;;;;;;5052849;28;20103;-71
2022/04/21 03:00:24;;;;;;;0.30;0.30;;;4.60;80.70;;;;;;5052783;28;20021;-72
2022/04/21 03:02:50;;;;;;;0.75;0.75;;;4.40;80.70;;;;;;5052355;28;20389;-71
2022/04/21 03:05:16;;;;;;;0.40;0.40;;;4.40;81.10;;;;;;5034927;28;20043;-71
2022/04/21 03:07:42;;;;;;;0.30;0.30;;;4.20;81.20;;;;;;5034935;28;20024;-71
2022/04/21 03:10:09;;;;;;;3.10;2.40;;;4.10;82.40;;;;;;5052576;28;20384;-71
2022/04/21 03:12:34;;;;;;;0.40;0.40;;;4.10;82.70;;;;;;5034826;28;20113;-71
2022/04/21 03:15:01;;;;;;;0.80;0.80;;;3.90;84.40;;;;;;5052463;28;20447;-71
2022/04/21 03:17:29;;;;;;;0.75;0.75;;;3.90;83.80;;;;;;5052327;28;20062;-71
2022/04/21 03:19:55;;;;;;;0.30;0.30;;;3.80;85.00;;;;;;5052404;28;20021;-71
2022/04/21 03:25:07;;;;;;;0.63;0.63;;;3.80;86.50;;;;;;5034877;28;20025;-73
2022/04/21 03:27:33;;;;;;;0.40;0.40;;;3.90;85.50;;;;;;5052409;28;20036;-71
2022/04/21 03:30:00;;;;;;;10.43;9.20;;;3.80;86.70;;;;;;5052319;28;20028;-71
2022/04/21 03:32:26;;;;;;;1.05;1.05;;;3.80;87.50;;;;;;5052169;28;20324;-71
2022/04/21 03:34:53;;;;;;;0.32;0.32;;;4.00;87.60;;;;;;5052211;28;20028;-71
2022/04/21 03:37:20;;;;;;;0.40;0.40;;;3.90;86.60;;;;;;5052057;28;20108;-71
2022/04/21 03:39:46;;;;;;;1.20;1.20;;;3.90;85.60;;;;;;5034164;28;20021;-72
2022/04/21 03:42:31;;;;;;;3.55;2.55;;;3.90;86.00;;;;;;5034261;28;20029;-71
2022/04/21 03:44:57;;;;;;;0.45;0.45;;;3.50;85.60;;;;;;5017814;28;20071;-71
2022/04/21 03:47:23;;;;;;;0.82;0.82;;;3.30;86.40;;;;;;5051968;28;20060;-71
2022/04/21 03:49:49;;;;;;;0.30;0.30;;;3.40;86.90;;;;;;5034330;28;20063;-71
2022/04/21 03:52:17;;;;;;;0.75;0.75;;;3.20;87.30;;;;;;5034177;28;20063;-71
2022/04/21 03:54:43;;;;;;;1.73;1.63;;;3.40;88.00;;;;;;5052006;28;20028;-71
2022/04/21 03:57:09;;;;;;;0.30;0.30;;;3.40;88.30;;;;;;5051917;28;20025;-71
2022/04/21 03:59:36;;;;;;;0.30;0.30;;;3.60;88.40;;;;;;5051852;28;20151;-71
2022/04/21 04:02:03;;;;;;;0.30;0.30;;;3.70;88.10;;;;;;5052000;28;20503;-71
2022/04/21 04:04:36;;;;;;;0.93;0.93;;;3.90;88.00;;;;;;5051920;28;20021;-71
2022/04/21 04:12:44;;;;;;;0.40;0.40;;;4.70;85.70;;;;;;5051917;28;20036;-71
2022/04/21 04:15:10;;;;;;;0.30;0.30;;;4.70;85.20;;;;;;5052871;28;20035;-71
2022/04/21 04:17:36;;;;;;;0.40;0.40;;;4.80;84.20;;;;;;5056008;28;20021;-71
2022/04/21 04:20:04;;;;;;;1.08;0.77;;;4.70;84.80;;;;;;5037919;28;20060;-71
2022/04/21 04:22:35;;;;;;;0.30;0.30;;;4.80;84.40;;;;;;5037949;28;20392;-71
2022/04/21 04:25:01;;;;;;;0.40;0.40;;;4.90;83.70;;;;;;5055693;28;20033;-71
2022/04/21 04:27:26;;;;;;;0.40;0.40;;;4.80;83.30;;;;;;5055842;28;20025;-71
2022/04/21 04:29:52;;;;;;;0.43;0.43;;;4.60;83.50;;;;;;5055651;28;20024;-71
2022/04/21 04:32:18;;;;;;;0.60;0.60;;;4.40;84.00;;;;;;5055558;28;20064;-71
2022/04/21 04:34:44;;;;;;;0.30;0.30;;;4.40;84.90;;;;;;5055490;28;20075;-71
2022/04/21 04:37:10;;;;;;;0.43;0.43;;;4.30;85.40;;;;;;5055456;28;20102;-71
2022/04/21 04:39:36;;;;;;;3.92;1.67;;;4.30;85.70;;;;;;5055318;28;20025;-71
2022/04/21 04:42:16;;;;;;;0.30;0.30;;;4.40;85.20;;;;;;5055430;28;20033;-72
2022/04/21 04:44:49;;;;;;;0.30;0.30;;;4.30;85.80;;;;;;5068152;22;20080;-73
2022/04/21 04:47:15;;;;;;;0.80;0.80;;;4.10;85.70;;;;;;5019657;28;20043;-73
2022/04/21 04:49:41;;;;;;;0.40;0.40;;;4.20;86.10;;;;;;5037345;28;20480;-73
2022/04/21 04:52:08;;;;;;;0.30;0.30;;;4.30;86.10;;;;;;5054962;28;20021;-73
2022/04/21 04:54:34;;;;;;;0.60;0.60;;;4.10;86.80;;;;;;5037050;28;20029;-73
2022/04/21 04:56:59;;;;;;;0.30;0.30;;;4.10;86.90;;;;;;5037003;28;20044;-73
2022/04/21 04:59:27;;;;;;;1.08;0.98;;;4.10;87.90;;;;;;5036957;28;20032;-73
2022/04/21 05:01:53;;;;;;;0.75;0.75;;;4.20;87.40;;;;;;5037115;28;20396;-73
2022/04/21 05:04:20;;;;;;;0.30;0.30;;;4.20;87.30;;;;;;5037117;28;20231;-73
2022/04/21 05:06:57;;;;;;;0.30;0.30;;;4.30;87.00;;;;;;5036612;28;20112;-73
2022/04/21 05:09:24;;;;;;;0.30;0.30;;;4.20;88.00;;;;;;5054626;28;20086;-73
2022/04/21 05:11:54;;;;;;;0.90;0.90;;;4.40;88.40;;;;;;5036663;28;20035;-73
2022/04/21 05:14:21;;;;;;;3.30;2.22;;;4.40;87.60;;;;;;5054680;28;20037;-73
2022/04/21 05:16:47;;;;;;;0.40;0.40;;;4.50;87.50;;;;;;5054401;28;20024;-72
2022/04/21 05:19:15;;;;;;;0.30;0.30;;;4.40;87.30;;;;;;5036714;28;20056;-73
2022/04/21 05:21:42;;;;;;;0.40;0.40;;;4.30;88.10;;;;;;5054258;28;20025;-73
2022/04/21 05:24:10;;;;;;;0.80;0.80;;;4.10;89.10;;;;;;5054485;28;20025;-73
2022/04/21 05:26:37;;;;;;;0.40;0.40;;;3.90;90.10;;;;;;5036208;28;20029;-73
2022/04/21 05:32:02;;;;;;;0.32;0.32;;;4.10;90.40;;;;;;5054382;28;20052;-73
2022/04/21 05:34:29;;;;;;;0.45;0.45;;;4.20;90.60;;;;;;5054590;28;20112;-73
2022/04/21 05:36:56;;;;;;;0.30;0.30;;;4.30;90.40;;;;;;5033708;28;20159;-72
2022/04/21 05:39:22;;;;;;;0.95;0.95;;;4.60;90.20;;;;;;5036671;28;20036;-73
2022/04/21 05:41:51;;;;;;;0.40;0.40;;;4.70;89.40;;;;;;5035919;28;20434;-73
2022/04/21 05:44:18;;;;;;;0.30;0.30;;;4.80;89.20;;;;;;5059998;28;20427;-73
2022/04/21 05:46:44;;;;;;;0.30;0.30;;;4.90;89.20;;;;;;5065425;28;20035;-73
2022/04/21 05:49:11;;;;;;;0.40;0.40;;;5.10;89.10;;;;;;5040720;28;20029;-73
2022/04/21 05:51:37;;;;;;;1.58;1.48;;;5.20;88.30;;;;;;5052432;28;20028;-73
2022/04/21 05:54:05;;;;;;;3.13;2.85;;;5.30;90.10;;;;;;5052056;28;20032;-73
2022/04/21 05:56:32;;;;;;;0.30;0.30;;;5.50;89.50;;;;;;5052080;28;20079;-73
2022/04/21 05:58:58;;;;;;;0.30;0.30;;;5.80;88.30;;;;;;5046253;28;20027;-73
2022/04/21 06:01:24;;;;;;;0.30;0.30;;;6.00;87.00;;;;;;5073640;28;20463;-73
2022/04/21 06:03:52;;;;;;;0.25;0.25;;;6.10;86.10;;;;;;5057363;28;20064;-73
2022/04/21 06:06:18;;;;;;;0.30;0.30;;;6.20;86.00;;;;;;5053147;28;20735;-73
2022/04/21 06:08:44;;;;;;;0.30;0.30;;;6.30;85.20;;;;;;5046036;28;20052;-72
2022/04/21 06:11:13;;;;;;;0.30;0.30;;;6.40;85.20;;;;;;5053370;28;20106;-71
2022/04/21 06:13:41;;;;;;;0.30;0.30;;;6.50;85.50;;;;;;5052007;28;20024;-72
2022/04/21 06:16:07;;;;;;;0.28;0.28;;;6.80;84.10;;;;;;5051258;28;20106;-71
2022/04/21 06:18:33;;;;;;;0.65;0.63;;;6.90;84.20;;;;;;5033294;28;20028;-72
2022/04/21 06:21:00;;;;;;;0.30;0.30;;;7.20;83.50;;;;;;5051740;28;20029;-77
2022/04/21 06:23:26;;;;;;;1.92;1.40;;;7.10;84.20;;;;;;5040226;28;20099;-72
2022/04/21 06:25:58;;;;;;;0.40;0.40;;;7.20;83.50;;;;;;5052304;28;20407;-72
2022/04/21 06:28:28;;;;;;;0.30;0.30;;;7.30;83.10;;;;;;5042663;28;20033;-73
2022/04/21 06:30:54;;;;;;;0.30;0.30;;;7.40;82.70;;;;;;5052984;28;20060;-73
2022/04/21 06:33:19;;;;;;;0.57;0.57;;;7.40;82.70;;;;;;5035076;28;20029;-73
2022/04/21 06:35:45;;;;;;;0.30;0.30;;;7.40;83.10;;;;;;5052791;28;20032;-73
2022/04/21 06:38:12;;;;;;;0.20;0.20;;;7.50;83.60;;;;;;5051899;28;20021;-73
2022/04/21 06:40:37;;;;;;;0.30;0.30;;;7.40;83.70;;;;;;5052873;28;20052;-73
2022/04/21 06:48:01;;;;;;;0.65;0.65;;;7.60;82.20;;;;;;5034643;28;20029;-70
2022/04/21 06:48:37;;;;;;;0.40;0.40;;;7.60;81.10;;;;;;5052273;28;20030;-70
2022/04/21 06:51:05;;;;;;;0.32;0.32;;;7.70;81.40;;;;;;5034883;28;20025;-70
2022/04/21 06:53:31;;;;;;;1.08;0.60;;;7.90;79.00;;;;;;5052329;28;20033;-71
2022/04/21 06:55:57;;;;;;;0.38;0.38;;;7.90;76.70;;;;;;5053619;28;20017;-72
2022/04/21 06:58:23;;;;;;;0.82;0.82;;;7.90;77.20;;;;;;5043587;28;20024;-71
2022/04/21 07:00:49;;;;;;;0.43;0.43;;;8.00;77.60;;;;;;5034665;28;20032;-71
2022/04/21 07:03:14;;;;;;;0.30;0.30;;;8.00;77.70;;;;;;5051233;28;20533;-71
2022/04/21 07:05:40;;;;;;;0.30;0.30;;;8.20;75.40;;;;;;5052084;28;20025;-71
2022/04/21 07:08:07;;;;;;;0.20;0.20;;;8.40;74.30;;;;;;5042782;28;20060;-70
2022/04/21 07:10:34;;;;;;;2.75;2.60;;;8.40;74.60;;;;;;5028324;28;20032;-71
2022/04/21 07:13:08;;;;;;;1.13;0.63;;;8.40;75.60;;;;;;5030319;28;20063;-70
2022/04/21 07:15:33;;;;;;;1.73;1.20;;;8.50;75.50;;;;;;5040413;28;20029;-71
2022/04/21 07:17:59;;;;;;;2.08;1.10;;;8.80;75.00;;;;;;5013262;28;20391;-70
2022/04/21 07:20:25;;;;;;;0.30;0.30;;;8.90;75.10;;;;;;5039818;28;21602;-70
2022/04/21 07:22:51;;;;;;;0.30;0.30;;;9.10;75.00;;;;;;5040839;28;20029;-71
2022/04/21 07:25:16;;;;;;;0.28;0.28;;;9.20;74.60;;;;;;5029600;28;20037;-71
2022/04/21 07:27:42;;;;;;;0.35;0.35;;;9.30;74.10;;;;;;5031857;28;20548;-71
2022/04/21 07:30:08;;;;;;;0.30;0.30;;;9.40;73.30;;;;;;5039686;28;20035;-71
2022/04/21 07:32:34;;;;;;;0.28;0.28;;;9.50;73.60;;;;;;5029154;28;20033;-71
2022/04/21 07:35:00;;;;;;;0.30;0.30;;;9.60;73.00;;;;;;5029572;28;20025;-71
2022/04/21 07:37:26;;;;;;;0.40;0.40;;;9.70;73.40;;;;;;5039264;28;20030;-71
2022/04/21 07:39:52;;;;;;;1.23;1.15;;;9.80;72.80;;;;;;5029395;28;20025;-71
2022/04/21 07:42:17;;;;;;;0.20;0.20;;;9.90;70.50;;;;;;5039730;28;20512;-71
2022/04/21 07:44:46;;;;;;;0.50;0.50;;;10.10;70.50;;;;;;5039622;28;20128;-71
2022/04/21 07:47:12;;;;;;;1.77;1.70;;;10.30;69.70;;;;;;5028980;28;20060;-71
2022/04/21 07:49:47;;;;;;;6.43;1.55;;;10.40;69.40;;;;;;5039918;28;20032;-71
2022/04/21 07:55:09;;;;;;;0.60;0.57;;;10.40;68.70;;;;;;5039487;28;20029;-71
2022/04/21 07:57:35;;;;;;;0.20;0.20;;;10.50;68.60;;;;;;5028385;28;20518;-71
2022/04/21 08:00:01;;;;;;;7.10;1.35;;;10.80;67.80;;;;;;5040226;28;20025;-71
2022/04/21 08:02:26;;;;;;;0.30;0.30;;;11.00;67.10;;;;;;5013414;28;20044;-71
2022/04/21 08:04:52;;;;;;;0.75;0.75;;;11.10;66.80;;;;;;5043035;28;20025;-70
2022/04/21 08:07:18;;;;;;;5.90;2.90;;;10.90;67.30;;;;;;5016289;28;20040;-71
2022/04/21 08:09:43;;;;;;;0.82;0.82;;;11.10;66.90;;;;;;5042442;28;20037;-71
2022/04/21 08:12:10;;;;;;;0.20;0.20;;;11.20;66.20;;;;;;5042457;28;20119;-72
2022/04/21 08:14:35;;;;;;;0.20;0.20;;;11.40;66.10;;;;;;5042706;28;20094;-72
2022/04/21 08:17:02;;;;;;;3.00;2.22;;;11.40;66.10;;;;;;5043253;28;20018;-71
2022/04/21 08:19:28;;;;;;;0.63;0.63;;;11.70;65.60;;;;;;5042384;28;20492;-71
2022/04/21 08:21:54;;;;;;;0.20;0.20;;;12.00;65.30;;;;;;5041780;28;20032;-71
2022/04/21 08:32:45;;;;;;;1.30;1.20;;;12.70;63.50;;;;;;5039714;28;20044;-71
2022/04/21 08:35:15;;;;;;;0.20;0.20;;;12.70;61.60;;;;;;5029344;28;20033;-71
2022/04/21 08:37:42;;;;;;;4.47;1.38;;;12.90;60.80;;;;;;5040172;28;20029;-71
2022/04/21 08:40:10;;;;;;;0.98;0.93;;;13.20;60.10;;;;;;5029922;28;20075;-71
2022/04/21 08:42:38;;;;;;;6.40;1.60;;;13.40;59.40;;;;;;5040017;28;20029;-71
2022/04/21 08:45:04;;;;;;;0.35;0.35;;;13.60;60.20;;;;;;5038874;28;20143;-74
2022/04/21 08:47:31;;;;;;;3.22;1.85;;;13.60;58.20;;;;;;5027587;28;20040;-74
2022/04/21 08:50:06;;;;;;;0.25;0.25;;;13.70;56.80;;;;;;5029492;28;20090;-74
2022/04/21 08:52:34;;;;;;;1.25;1.08;;;13.70;57.40;;;;;;5028996;28;20090;-74
2022/04/21 08:55:02;;;;;;;1.65;0.95;;;13.70;57.10;;;;;;5038403;28;20082;-74
2022/04/21 08:57:31;;;;;;;2.88;0.60;;;14.00;56.10;;;;;;5027188;28;20025;-74
2022/04/21 08:59:58;;;;;;;3.83;2.80;;;14.10;55.40;;;;;;5038320;28;20032;-74
2022/04/21 09:02:45;;;;;;;1.58;1.48;;;14.00;55.90;;;;;;5034174;28;20382;-75
2022/04/21 09:05:11;;;;;;;0.28;0.28;;;14.40;56.20;;;;;;5016109;28;20047;-73
2022/04/21 09:07:48;;;;;;;0.30;0.30;;;14.60;52.60;;;;;;5041014;28;20482;-73
2022/04/21 09:10:15;;;;;;;6.55;1.27;;;14.90;51.80;;;;;;5041122;28;20057;-73
2022/04/21 09:12:46;;;;;;;5.88;3.40;;;15.10;53.40;;;;;;5033114;28;20162;-73
2022/04/21 09:15:16;;;;;;;4.90;2.22;;;15.20;51.30;;;;;;5041480;28;20043;-73
2022/04/21 09:17:52;;;;;;;0.10;0.10;;;15.20;51.20;;;;;;5014860;28;20025;-73
2022/04/21 09:20:23;;;;;;;0.52;0.52;;;15.70;52.00;;;;;;5030607;28;20029;-72
2022/04/21 09:22:52;;;;;;;0.50;0.50;;;16.00;49.40;;;;;;5030582;28;20082;-73
2022/04/21 09:25:26;;;;;;;0.32;0.28;;;16.20;47.50;;;;;;5041150;28;20416;-74
2022/04/21 09:27:53;;;;;;;1.23;1.08;;;16.40;48.50;;;;;;5030987;28;20029;-73
2022/04/21 09:30:20;;;;;;;17.40;6.80;;;16.60;48.10;;;;;;5041099;28;20028;-73
2022/04/21 09:32:55;;;;;;;7.22;1.27;;;16.70;47.80;;;;;;5032452;28;20032;-73
2022/04/21 09:35:23;;;;;;;0.10;0.10;;;16.70;47.90;;;;;;5031673;28;20036;-74
2022/04/21 09:37:51;;;;;;;2.85;1.95;;;16.90;48.60;;;;;;5014409;28;20025;-74
2022/04/21 09:40:21;;;;;;;0.63;0.63;;;16.80;48.00;;;;;;5041025;28;20392;-77
2022/04/21 09:42:59;;;;;;;0.38;0.38;;;16.60;49.00;;;;;;5041861;28;20132;-73
2022/04/21 09:48:25;;;;;;;1.90;0.68;;;17.50;47.50;;;;;;5041515;28;20029;-73
2022/04/21 09:50:53;;;;;;;0.68;0.68;;;17.80;45.40;;;;;;5030217;28;20041;-74
2022/04/21 09:53:23;;;;;;;0.75;0.47;;;18.00;45.20;;;;;;5040469;28;20036;-73
2022/04/21 09:56:05;;;;;;;6.60;1.92;;;18.40;45.70;;;;;;5040577;28;20035;-73
2022/04/21 09:58:37;;;;;;;4.07;2.13;;;18.30;45.60;;;;;;5041207;28;20036;-73
2022/04/21 10:01:03;;;;;;;10.98;4.18;;;18.10;45.10;;;;;;5014718;28;20037;-73
2022/04/21 10:03:33;;;;;;;1.45;0.82;;;18.10;45.00;;;;;;5041590;28;20033;-73
2022/04/21 10:06:00;;;;;;;1.15;1.05;;;18.20;45.40;;;;;;5032299;28;20664;-74
2022/04/21 10:08:25;;;;;;;0.90;0.75;;;18.60;46.10;;;;;;5040206;28;20032;-73
2022/04/21 10:10:52;;;;;;;1.65;1.55;;;18.60;45.20;;;;;;5010452;28;20036;-73
2022/04/21 10:13:18;;;;;;;1.08;0.55;;;18.50;44.70;;;;;;5027090;28;20465;-72
2022/04/21 10:15:44;;;;;;;1.02;0.93;;;18.90;44.50;;;;;;5027618;28;20028;-72
2022/04/21 10:18:13;;;;;;;0.90;0.82;;;18.70;43.60;;;;;;5012662;28;20850;-72
2022/04/21 10:20:41;;;;;;;1.80;1.65;;;18.30;44.40;;;;;;5038787;28;20053;-73
2022/04/21 10:23:11;;;;;;;0.40;0.40;;;18.50;43.60;;;;;;5038346;28;20033;-73
2022/04/21 10:25:38;;;;;;;0.73;0.73;;;18.50;43.20;;;;;;5039466;28;20116;-73
2022/04/21 10:28:38;;;;;;;0.45;0.45;;;18.70;43.00;;;;;;5039873;28;20518;-73
2022/04/21 10:31:28;;;;;;;4.68;2.22;;;18.60;43.30;;;;;;5041956;28;20047;-74
2022/04/21 10:33:59;;;;;;;1.00;0.82;;;18.60;42.00;;;;;;5040360;28;20029;-72
2022/04/21 10:36:47;;;;;;;2.38;1.27;;;18.70;43.30;;;;;;5039299;28;20064;-72
2022/04/21 10:39:25;;;;;;;1.30;1.20;;;18.40;41.00;;;;;;5040111;28;20856;-72
2022/04/21 10:42:10;;;;;;;0.13;0.13;;;18.50;43.30;;;;;;5028439;28;20087;-73
2022/04/21 10:44:42;;;;;;;2.75;2.03;;;19.00;44.00;;;;;;5029438;28;20511;-73
2022/04/21 10:47:26;;;;;;;0.85;0.75;;;18.60;43.80;;;;;;5029997;28;20064;-72
2022/04/21 10:49:59;;;;;;;0.10;0.10;;;18.10;45.50;;;;;;5029772;28;20137;-72
2022/04/21 10:57:58;;;;;;;0.70;0.70;;;19.10;43.40;;;;;;5028158;28;20027;-72
2022/04/21 11:00:31;;;;;;;3.50;0.90;;;19.10;43.00;;;;;;5041830;28;20063;-72
2022/04/21 11:03:08;;;;;;;1.10;0.77;;;19.40;43.40;;;;;;5028221;28;20029;-72
2022/04/21 11:05:40;;;;;;;1.85;1.15;;;19.20;42.60;;;;;;5039498;28;20033;-72
2022/04/21 11:08:14;;;;;;;0.45;0.45;;;18.70;44.00;;;;;;5030273;28;20048;-73
2022/04/21 11:10:43;;;;;;;0.60;0.60;;;19.50;43.60;;;;;;5039562;28;20086;-73
2022/04/21 11:13:11;;;;;;;4.35;1.85;;;19.40;40.70;;;;;;5031389;28;20029;-72
2022/04/21 11:15:50;;;;;;;4.10;1.30;;;19.70;41.60;;;;;;5038915;28;20032;-72
2022/04/21 11:18:21;;;;;;;1.27;1.17;;;19.80;42.60;;;;;;5038858;28;20670;-73
2022/04/21 11:20:49;;;;;;;0.10;0.10;;;20.10;42.60;;;;;;5039105;28;20057;-72
2022/04/21 11:23:30;;;;;;;1.20;0.60;;;20.20;42.20;;;;;;5029239;28;20091;-72
2022/04/21 11:26:04;;;;;;;0.50;0.50;;;19.90;42.60;;;;;;5013568;28;20032;-73
2022/04/21 11:28:30;;;;;;;4.65;2.92;;;19.60;42.50;;;;;;5042831;28;20106;-73
2022/04/21 11:30:58;;;;;;;5.15;0.32;;;19.90;41.70;;;;;;5038897;28;20086;-72
2022/04/21 11:33:23;;;;;;;2.03;1.52;;;20.10;42.00;;;;;;5038467;28;20590;-73
2022/04/21 11:35:49;;;;;;;0.10;0.10;;;20.40;41.50;;;;;;5028133;28;20032;-73
2022/04/21 11:38:15;;;;;;;0.17;0.17;;;20.50;41.70;;;;;;5026657;28;20029;-73
2022/04/21 11:40:41;;;;;;;6.90;1.98;;;20.50;41.50;;;;;;5027336;28;20032;-73
2022/04/21 11:43:17;;;;;;;2.10;1.88;;;20.00;41.10;;;;;;5038074;28;20109;-73
2022/04/21 11:45:57;;;;;;;2.25;0.90;;;19.80;41.80;;;;;;5028242;28;20025;-74
2022/04/21 11:48:29;;;;;;;0.10;0.10;;;19.90;42.60;;;;;;5038573;28;20370;-74
2022/04/21 11:50:55;;;;;;;1.95;1.30;;;20.40;41.40;;;;;;5038396;28;20043;-74
2022/04/21 11:53:20;;;;;;;7.35;6.80;;;20.50;41.10;;;;;;5037468;28;20508;-73
2022/04/21 11:55:48;;;;;;;3.83;1.98;;;20.50;41.60;;;;;;5038598;28;20032;-74
2022/04/21 11:58:32;;;;;;;0.40;0.40;;;20.40;40.30;;;;;;5038297;28;20088;-74
2022/04/21 12:06:38;;;;;;;0.40;0.40;;;19.20;43.60;;;;;;5038793;28;20037;-74
2022/04/21 12:09:13;;;;;;;2.17;1.95;;;19.00;44.40;;;;;;5026380;28;20037;-74
2022/04/21 12:11:40;;;;;;;0.30;0.30;;;18.50;43.80;;;;;;5039291;28;20270;-74
2022/04/21 12:14:06;;;;;;;1.20;1.10;;;18.60;43.30;;;;;;5039082;28;20044;-74
2022/04/21 12:16:48;;;;;;;2.75;1.40;;;18.70;44.30;;;;;;5039318;28;20037;-74
2022/04/21 12:19:17;;;;;;;2.00;0.68;;;18.20;45.00;;;;;;5039051;28;20028;-74
2022/04/21 12:21:52;;;;;;;0.90;0.75;;;18.10;45.70;;;;;;5013174;28;20041;-74
2022/04/21 12:24:18;;;;;;;1.83;1.13;;;18.60;46.10;;;;;;5012352;28;20032;-74
2022/04/21 12:26:51;;;;;;;0.28;0.28;;;18.50;45.90;;;;;;5029568;28;20036;-74
2022/04/21 12:29:19;;;;;;;4.30;1.42;;;18.40;46.20;;;;;;5039254;28;20444;-74
2022/04/21 12:31:50;;;;;;;2.38;2.13;;;18.30;47.10;;;;;;5039156;28;20118;-74
2022/04/21 12:34:21;;;;;;;4.78;1.13;;;18.20;47.00;;;;;;5027195;28;20029;-74
2022/04/21 12:37:05;;;;;;;0.13;0.13;;;18.10;46.80;;;;;;5040638;28;20061;-74
2022/04/21 12:39:30;;;;;;;7.38;3.72;;;18.30;46.50;;;;;;5031443;28;20025;-74
2022/04/21 12:41:57;;;;;;;7.22;4.97;;;18.30;47.00;;;;;;5043007;28;20044;-74
2022/04/21 12:44:25;;;;;;;0.43;0.43;;;17.90;47.10;;;;;;5017018;28;20041;-74
2022/04/21 12:46:57;;;;;;;2.08;1.42;;;17.60;47.20;;;;;;5032614;28;20024;-74
2022/04/21 12:49:44;;;;;;;6.47;1.85;;;17.80;48.20;;;;;;5034393;28;20028;-74
2022/04/21 12:52:10;;;;;;;0.22;0.22;;;17.70;47.60;;;;;;5043016;28;20115;-74
2022/04/21 12:54:36;;;;;;;0.20;0.20;;;17.70;47.90;;;;;;5015642;28;20108;-74
2022/04/21 12:57:07;;;;;;;3.03;2.58;;;17.70;47.30;;;;;;5033819;28;20447;-74
2022/04/21 12:59:32;;;;;;;3.25;2.63;;;17.60;47.50;;;;;;5042102;28;20021;-74
2022/04/21 13:01:58;;;;;;;3.53;2.00;;;17.70;47.80;;;;;;5042473;28;20496;-74
2022/04/21 13:04:24;;;;;;;1.52;1.25;;;17.40;47.50;;;;;;5015504;28;20045;-74
2022/04/21 13:06:49;;;;;;;1.85;1.75;;;17.10;48.20;;;;;;5033253;28;20033;-74
2022/04/21 13:09:16;;;;;;;4.15;0.40;;;17.00;48.30;;;;;;5031028;28;20059;-74
2022/04/21 13:11:41;;;;;;;3.42;1.77;;;16.80;48.20;;;;;;5033858;28;20036;-73
2022/04/21 13:14:07;;;;;;;5.95;1.88;;;16.90;49.20;;;;;;5042386;28;20033;-74
2022/04/21 13:16:33;;;;;;;1.45;1.35;;;16.90;49.10;;;;;;5042424;28;20025;-74
2022/04/21 13:18:58;;;;;;;1.58;1.10;;;16.90;49.10;;;;;;5031100;28;20057;-74
2022/04/21 13:24:09;;;;;;;1.25;1.20;;;17.10;48.50;;;;;;5044077;28;20115;-73
2022/04/21 13:26:34;;;;;;;1.45;1.20;;;16.80;50.00;;;;;;5044564;28;20132;-73
2022/04/21 13:29:00;;;;;;;0.55;0.55;;;16.50;49.70;;;;;;5034331;28;20029;-73
2022/04/21 13:34:10;;;;;;;11.45;2.10;;;16.60;50.60;;;;;;5042244;28;20044;-73
2022/04/21 13:36:39;;;;;;;1.30;0.85;;;16.30;50.60;;;;;;5017424;28;20198;-72
2022/04/21 13:39:05;;;;;;;1.10;0.68;;;16.10;52.00;;;;;;5043272;28;20029;-73
2022/04/21 13:41:32;;;;;;;1.20;0.77;;;16.20;50.50;;;;;;5013542;28;20066;-74
2022/04/21 13:43:57;;;;;;;1.88;1.00;;;16.60;50.70;;;;;;5033739;28;20578;-74
2022/04/21 13:46:23;;;;;;;1.25;1.15;;;16.80;50.40;;;;;;5014376;28;20037;-75
2022/04/21 13:48:49;;;;;;;3.13;2.40;;;16.80;49.60;;;;;;5030908;28;20029;-74
2022/04/21 13:51:15;;;;;;;8.50;2.88;;;16.70;49.80;;;;;;5031430;28;20106;-74
2022/04/21 13:53:41;;;;;;;2.53;2.05;;;16.60;49.80;;;;;;5033159;28;20037;-75